EDFM/MHG METAR and TAF weather

Enter ICAO airport designator
Station Type Date Time Source
EDFM METAR 2020/07/11 15:50 UTC NOAA

EDFM 111550Z 01009KT 330V040 CAVOK 23/05 Q1023


Station Type Date Time Source
EDFM Decoded METAR 2020/07/11 15:50 UTC NOAA

Baden Wurttemberg, Neuostheim, Germany (EDFM) 49-28-21N 008-30-56E
Jul 11, 2020 - 11:50 AM EDT / 2020.07.11 1550 UTC
Wind: from the N (010 degrees) at 10 MPH (9 KT) (direction variable):0
Visibility: greater than 7 mile(s):0
Temperature: 73 F (23 C)
Dew Point: 41 F (5 C)
Relative Humidity: 31%
Pressure (altimeter): 30.21 in. Hg (1023 hPa)
ob: EDFM 111550Z 01009KT 330V040 CAVOK 23/05 Q1023
cycle: 16

Station Type Date Time Source
EDFM TAF 2012/03/06 06:30 UTC NOAA

TAF EDFM 060519Z 0606/0621 15004KT 9999 FEW040

Example: see airport list